sensor_id;sensor_type;location;lat;lon;timestamp;temperature;humidity
831;DHT22;397;50.564;7.272;2022-12-04T00:00:34;3.90;99.90
831;DHT22;397;50.564;7.272;2022-12-04T00:03:01;3.70;99.90
831;DHT22;397;50.564;7.272;2022-12-04T00:05:29;3.80;99.90
831;DHT22;397;50.564;7.272;2022-12-04T00:07:56;3.80;99.90
831;DHT22;397;50.564;7.272;2022-12-04T00:10:24;3.80;99.90
831;DHT22;397;50.564;7.272;2022-12-04T00:12:51;3.90;99.90
831;DHT22;397;50.564;7.272;2022-12-04T00:15:19;3.90;99.90
831;DHT22;397;50.564;7.272;2022-12-04T00:17:47;3.90;99.90
831;DHT22;397;50.564;7.272;2022-12-04T00:20:15;3.90;99.90
831;DHT22;397;50.564;7.272;2022-12-04T00:22:42;3.80;99.90
831;DHT22;397;50.564;7.272;2022-12-04T00:25:10;3.80;99.90
831;DHT22;397;50.564;7.272;2022-12-04T00:27:37;3.90;99.90
831;DHT22;397;50.564;7.272;2022-12-04T00:30:06;3.90;99.90
831;DHT22;397;50.564;7.272;2022-12-04T00:32:33;3.90;99.90
831;DHT22;397;50.564;7.272;2022-12-04T00:35:01;3.90;99.90
831;DHT22;397;50.564;7.272;2022-12-04T00:37:29;3.70;99.90
831;DHT22;397;50.564;7.272;2022-12-04T00:39:58;3.70;99.90
831;DHT22;397;50.564;7.272;2022-12-04T00:42:25;3.70;99.90
831;DHT22;397;50.564;7.272;2022-12-04T00:44:53;3.80;99.90
831;DHT22;397;50.564;7.272;2022-12-04T00:47:20;3.80;99.90
831;DHT22;397;50.564;7.272;2022-12-04T00:49:49;3.70;99.90
831;DHT22;397;50.564;7.272;2022-12-04T00:52:17;3.70;99.90
831;DHT22;397;50.564;7.272;2022-12-04T00:54:44;3.70;99.90
831;DHT22;397;50.564;7.272;2022-12-04T00:57:12;3.70;99.90
831;DHT22;397;50.564;7.272;2022-12-04T00:59:39;3.70;99.90
831;DHT22;397;50.564;7.272;2022-12-04T01:02:07;3.50;99.90
831;DHT22;397;50.564;7.272;2022-12-04T01:04:34;3.70;99.90
831;DHT22;397;50.564;7.272;2022-12-04T01:07:02;3.60;99.90
831;DHT22;397;50.564;7.272;2022-12-04T01:09:30;3.60;99.90
831;DHT22;397;50.564;7.272;2022-12-04T01:11:58;3.50;99.90
831;DHT22;397;50.564;7.272;2022-12-04T01:14:25;3.40;99.90
831;DHT22;397;50.564;7.272;2022-12-04T01:16:53;3.40;99.90
831;DHT22;397;50.564;7.272;2022-12-04T01:19:20;3.40;99.90
831;DHT22;397;50.564;7.272;2022-12-04T01:21:48;3.50;99.90
831;DHT22;397;50.564;7.272;2022-12-04T01:24:16;3.50;99.90
831;DHT22;397;50.564;7.272;2022-12-04T01:26:43;3.50;99.90
831;DHT22;397;50.564;7.272;2022-12-04T01:29:11;3.50;99.90
831;DHT22;397;50.564;7.272;2022-12-04T01:31:38;3.60;99.90
831;DHT22;397;50.564;7.272;2022-12-04T01:34:06;3.50;99.90
831;DHT22;397;50.564;7.272;2022-12-04T01:36:33;3.50;99.90
831;DHT22;397;50.564;7.272;2022-12-04T01:39:01;3.50;99.90
831;DHT22;397;50.564;7.272;2022-12-04T01:41:30;3.60;99.90
831;DHT22;397;50.564;7.272;2022-12-04T01:44:19;3.50;99.90
831;DHT22;397;50.564;7.272;2022-12-04T01:46:54;3.50;99.90
831;DHT22;397;50.564;7.272;2022-12-04T01:49:30;3.50;99.90
831;DHT22;397;50.564;7.272;2022-12-04T01:52:02;3.50;99.90
831;DHT22;397;50.564;7.272;2022-12-04T01:54:32;3.50;99.90
831;DHT22;397;50.564;7.272;2022-12-04T01:57:16;3.50;99.90
831;DHT22;397;50.564;7.272;2022-12-04T01:59:49;3.40;99.90
831;DHT22;397;50.564;7.272;2022-12-04T02:02:20;3.40;99.90
831;DHT22;397;50.564;7.272;2022-12-04T02:04:46;3.40;99.90
831;DHT22;397;50.564;7.272;2022-12-04T02:07:14;3.40;99.90
831;DHT22;397;50.564;7.272;2022-12-04T02:09:42;3.40;99.90
831;DHT22;397;50.564;7.272;2022-12-04T02:12:18;3.40;99.90
831;DHT22;397;50.564;7.272;2022-12-04T02:14:50;3.30;99.90
831;DHT22;397;50.564;7.272;2022-12-04T02:23:00;3.20;99.90
831;DHT22;397;50.564;7.272;2022-12-04T02:28:30;3.20;99.90
831;DHT22;397;50.564;7.272;2022-12-04T02:30:58;3.10;99.90
831;DHT22;397;50.564;7.272;2022-12-04T02:33:45;3.00;99.90
831;DHT22;397;50.564;7.272;2022-12-04T02:36:17;2.80;99.90
831;DHT22;397;50.564;7.272;2022-12-04T02:38:55;2.70;99.90
831;DHT22;397;50.564;7.272;2022-12-04T02:41:26;2.60;99.90
831;DHT22;397;50.564;7.272;2022-12-04T02:44:00;2.70;99.90
831;DHT22;397;50.564;7.272;2022-12-04T02:46:37;2.60;99.90
831;DHT22;397;50.564;7.272;2022-12-04T02:49:10;2.80;99.90
831;DHT22;397;50.564;7.272;2022-12-04T02:51:38;2.90;99.90
831;DHT22;397;50.564;7.272;2022-12-04T02:54:15;2.70;99.90
831;DHT22;397;50.564;7.272;2022-12-04T02:56:40;2.80;99.90
831;DHT22;397;50.564;7.272;2022-12-04T02:59:17;2.90;99.90
831;DHT22;397;50.564;7.272;2022-12-04T03:01:48;3.00;99.90
831;DHT22;397;50.564;7.272;2022-12-04T03:04:24;2.90;99.90
831;DHT22;397;50.564;7.272;2022-12-04T03:06:59;3.00;99.90
831;DHT22;397;50.564;7.272;2022-12-04T03:12:20;2.90;99.90
831;DHT22;397;50.564;7.272;2022-12-04T03:14:50;3.00;99.90
831;DHT22;397;50.564;7.272;2022-12-04T03:17:21;3.00;99.90
831;DHT22;397;50.564;7.272;2022-12-04T03:19:51;3.00;99.90
831;DHT22;397;50.564;7.272;2022-12-04T03:22:20;3.10;99.90
831;DHT22;397;50.564;7.272;2022-12-04T03:24:54;3.10;99.90
831;DHT22;397;50.564;7.272;2022-12-04T03:27:43;3.10;99.90
831;DHT22;397;50.564;7.272;2022-12-04T03:30:16;3.10;99.90
831;DHT22;397;50.564;7.272;2022-12-04T03:33:12;3.10;99.90
831;DHT22;397;50.564;7.272;2022-12-04T03:38:38;3.00;99.90
831;DHT22;397;50.564;7.272;2022-12-04T03:43:53;2.90;99.90
831;DHT22;397;50.564;7.272;2022-12-04T03:46:32;2.90;99.90
831;DHT22;397;50.564;7.272;2022-12-04T03:51:42;2.90;99.90
831;DHT22;397;50.564;7.272;2022-12-04T03:54:25;3.00;99.90
831;DHT22;397;50.564;7.272;2022-12-04T03:56:54;3.00;99.90
831;DHT22;397;50.564;7.272;2022-12-04T03:59:33;3.00;99.90
831;DHT22;397;50.564;7.272;2022-12-04T04:01:58;3.00;99.90
831;DHT22;397;50.564;7.272;2022-12-04T04:04:34;3.10;99.90
831;DHT22;397;50.564;7.272;2022-12-04T04:07:01;3.10;99.90
831;DHT22;397;50.564;7.272;2022-12-04T04:09:30;2.70;99.90
831;DHT22;397;50.564;7.272;2022-12-04T04:12:02;2.70;99.90
831;DHT22;397;50.564;7.272;2022-12-04T04:14:35;2.60;99.90
831;DHT22;397;50.564;7.272;2022-12-04T04:17:19;2.70;99.90
831;DHT22;397;50.564;7.272;2022-12-04T04:20:08;2.90;99.90
831;DHT22;397;50.564;7.272;2022-12-04T04:22:55;2.90;99.90
831;DHT22;397;50.564;7.272;2022-12-04T04:25:43;2.80;99.90
831;DHT22;397;50.564;7.272;2022-12-04T04:28:31;2.50;99.90
831;DHT22;397;50.564;7.272;2022-12-04T04:31:49;2.60;99.90
831;DHT22;397;50.564;7.272;2022-12-04T04:33:31;2.70;99.90
831;DHT22;397;50.564;7.272;2022-12-04T04:36:22;2.80;99.90
831;DHT22;397;50.564;7.272;2022-12-04T04:38:44;2.70;99.90
831;DHT22;397;50.564;7.272;2022-12-04T04:41:56;2.70;99.90
831;DHT22;397;50.564;7.272;2022-12-04T04:44:16;2.70;99.90
831;DHT22;397;50.564;7.272;2022-12-04T04:46:46;2.70;99.90
831;DHT22;397;50.564;7.272;2022-12-04T04:49:14;2.70;99.90
831;DHT22;397;50.564;7.272;2022-12-04T04:51:44;2.70;99.90
831;DHT22;397;50.564;7.272;2022-12-04T04:54:13;2.70;99.90
831;DHT22;397;50.564;7.272;2022-12-04T04:56:44;2.70;99.90
831;DHT22;397;50.564;7.272;2022-12-04T04:59:12;2.70;99.90
831;DHT22;397;50.564;7.272;2022-12-04T05:01:42;2.70;99.90
831;DHT22;397;50.564;7.272;2022-12-04T05:04:10;2.60;99.90
831;DHT22;397;50.564;7.272;2022-12-04T05:06:38;2.70;99.90
831;DHT22;397;50.564;7.272;2022-12-04T05:09:05;2.70;99.90
831;DHT22;397;50.564;7.272;2022-12-04T05:11:33;2.70;99.90
831;DHT22;397;50.564;7.272;2022-12-04T05:14:00;2.60;99.90
831;DHT22;397;50.564;7.272;2022-12-04T05:16:28;2.60;99.90
831;DHT22;397;50.564;7.272;2022-12-04T05:18:55;2.70;99.90
831;DHT22;397;50.564;7.272;2022-12-04T05:21:41;2.70;99.90
831;DHT22;397;50.564;7.272;2022-12-04T05:24:08;2.70;99.90
831;DHT22;397;50.564;7.272;2022-12-04T05:26:36;2.70;99.90
831;DHT22;397;50.564;7.272;2022-12-04T05:29:03;2.70;99.90
831;DHT22;397;50.564;7.272;2022-12-04T05:31:31;2.70;99.90
831;DHT22;397;50.564;7.272;2022-12-04T05:33:58;2.60;99.90
831;DHT22;397;50.564;7.272;2022-12-04T05:36:26;2.60;99.90
831;DHT22;397;50.564;7.272;2022-12-04T05:38:53;2.70;99.90
831;DHT22;397;50.564;7.272;2022-12-04T05:41:21;2.70;99.90
831;DHT22;397;50.564;7.272;2022-12-04T05:43:48;2.50;99.90
831;DHT22;397;50.564;7.272;2022-12-04T05:46:16;2.60;99.90
831;DHT22;397;50.564;7.272;2022-12-04T05:48:43;2.50;99.90
831;DHT22;397;50.564;7.272;2022-12-04T05:51:11;2.20;99.90
831;DHT22;397;50.564;7.272;2022-12-04T05:53:39;2.30;99.90
831;DHT22;397;50.564;7.272;2022-12-04T05:56:07;2.10;99.90
831;DHT22;397;50.564;7.272;2022-12-04T05:58:36;2.30;99.90
831;DHT22;397;50.564;7.272;2022-12-04T06:01:15;2.30;99.90
831;DHT22;397;50.564;7.272;2022-12-04T06:03:43;2.40;99.90
831;DHT22;397;50.564;7.272;2022-12-04T06:06:17;2.50;99.90
831;DHT22;397;50.564;7.272;2022-12-04T06:08:45;2.60;99.90
831;DHT22;397;50.564;7.272;2022-12-04T06:11:17;2.60;99.90
831;DHT22;397;50.564;7.272;2022-12-04T06:13:45;2.70;99.90
831;DHT22;397;50.564;7.272;2022-12-04T06:16:18;2.60;99.90
831;DHT22;397;50.564;7.272;2022-12-04T06:19:06;2.60;99.90
831;DHT22;397;50.564;7.272;2022-12-04T06:21:35;2.80;99.90
831;DHT22;397;50.564;7.272;2022-12-04T06:24:04;2.80;99.90
831;DHT22;397;50.564;7.272;2022-12-04T06:26:32;2.60;99.90
831;DHT22;397;50.564;7.272;2022-12-04T06:28:59;2.70;99.90
831;DHT22;397;50.564;7.272;2022-12-04T06:31:28;2.60;99.90
831;DHT22;397;50.564;7.272;2022-12-04T06:33:57;2.70;99.90
831;DHT22;397;50.564;7.272;2022-12-04T06:36:24;2.60;99.90
831;DHT22;397;50.564;7.272;2022-12-04T06:38:54;2.70;99.90
831;DHT22;397;50.564;7.272;2022-12-04T06:41:23;2.70;99.90
831;DHT22;397;50.564;7.272;2022-12-04T06:43:51;2.70;99.90
831;DHT22;397;50.564;7.272;2022-12-04T06:46:21;2.70;99.90
831;DHT22;397;50.564;7.272;2022-12-04T06:48:50;2.70;99.90
831;DHT22;397;50.564;7.272;2022-12-04T06:51:22;2.70;99.90
831;DHT22;397;50.564;7.272;2022-12-04T06:53:51;2.70;99.90
831;DHT22;397;50.564;7.272;2022-12-04T06:56:21;2.80;99.90
831;DHT22;397;50.564;7.272;2022-12-04T06:58:53;2.50;99.90
831;DHT22;397;50.564;7.272;2022-12-04T07:01:22;2.50;99.90
831;DHT22;397;50.564;7.272;2022-12-04T07:03:51;2.70;99.90
831;DHT22;397;50.564;7.272;2022-12-04T07:06:22;2.70;99.90
831;DHT22;397;50.564;7.272;2022-12-04T07:08:57;2.70;99.90
831;DHT22;397;50.564;7.272;2022-12-04T07:11:23;2.50;99.90
831;DHT22;397;50.564;7.272;2022-12-04T07:13:51;2.50;99.90
831;DHT22;397;50.564;7.272;2022-12-04T07:16:20;2.50;99.90
831;DHT22;397;50.564;7.272;2022-12-04T07:18:48;2.60;99.90
831;DHT22;397;50.564;7.272;2022-12-04T07:21:19;2.50;99.90
831;DHT22;397;50.564;7.272;2022-12-04T07:23:51;2.60;99.90
831;DHT22;397;50.564;7.272;2022-12-04T07:26:20;2.70;99.90
831;DHT22;397;50.564;7.272;2022-12-04T07:28:48;2.60;99.90
831;DHT22;397;50.564;7.272;2022-12-04T07:31:18;2.60;99.90
831;DHT22;397;50.564;7.272;2022-12-04T07:33:47;2.60;99.90
831;DHT22;397;50.564;7.272;2022-12-04T07:36:18;2.50;99.90
831;DHT22;397;50.564;7.272;2022-12-04T07:38:45;2.40;99.90
831;DHT22;397;50.564;7.272;2022-12-04T07:41:14;2.30;99.90
831;DHT22;397;50.564;7.272;2022-12-04T07:43:41;2.30;99.90
831;DHT22;397;50.564;7.272;2022-12-04T07:46:20;2.40;99.90
831;DHT22;397;50.564;7.272;2022-12-04T07:48:43;2.40;99.90
831;DHT22;397;50.564;7.272;2022-12-04T07:51:20;2.30;99.90
831;DHT22;397;50.564;7.272;2022-12-04T07:53:44;2.10;99.90
831;DHT22;397;50.564;7.272;2022-12-04T07:56:13;2.30;99.90
831;DHT22;397;50.564;7.272;2022-12-04T07:58:41;2.40;99.90
831;DHT22;397;50.564;7.272;2022-12-04T08:01:15;2.50;99.90
831;DHT22;397;50.564;7.272;2022-12-04T08:03:44;2.50;99.90
831;DHT22;397;50.564;7.272;2022-12-04T08:06:12;2.60;99.90
831;DHT22;397;50.564;7.272;2022-12-04T08:08:39;2.70;99.90
831;DHT22;397;50.564;7.272;2022-12-04T08:11:09;2.70;99.90
831;DHT22;397;50.564;7.272;2022-12-04T08:13:37;2.70;99.90
831;DHT22;397;50.564;7.272;2022-12-04T08:16:06;2.80;99.90
831;DHT22;397;50.564;7.272;2022-12-04T08:18:34;2.80;99.90
831;DHT22;397;50.564;7.272;2022-12-04T08:23:32;2.90;99.90
831;DHT22;397;50.564;7.272;2022-12-04T08:26:01;2.80;99.90
831;DHT22;397;50.564;7.272;2022-12-04T08:28:29;2.90;99.90
831;DHT22;397;50.564;7.272;2022-12-04T08:31:01;2.80;99.90
831;DHT22;397;50.564;7.272;2022-12-04T08:33:29;2.70;99.90
831;DHT22;397;50.564;7.272;2022-12-04T08:35:57;2.60;99.90
831;DHT22;397;50.564;7.272;2022-12-04T08:38:25;2.60;99.90
831;DHT22;397;50.564;7.272;2022-12-04T08:40:53;2.60;99.90
831;DHT22;397;50.564;7.272;2022-12-04T08:43:20;2.60;99.90
831;DHT22;397;50.564;7.272;2022-12-04T08:46:00;2.70;99.90
831;DHT22;397;50.564;7.272;2022-12-04T08:48:23;2.70;99.90
831;DHT22;397;50.564;7.272;2022-12-04T08:50:51;2.70;99.90
831;DHT22;397;50.564;7.272;2022-12-04T08:53:19;2.80;99.90
831;DHT22;397;50.564;7.272;2022-12-04T08:55:47;2.80;99.90
831;DHT22;397;50.564;7.272;2022-12-04T08:58:15;2.80;99.90
831;DHT22;397;50.564;7.272;2022-12-04T09:00:43;2.80;99.90
831;DHT22;397;50.564;7.272;2022-12-04T09:03:16;2.80;99.90
831;DHT22;397;50.564;7.272;2022-12-04T09:05:45;2.80;99.90
831;DHT22;397;50.564;7.272;2022-12-04T09:08:14;2.80;99.90
831;DHT22;397;50.564;7.272;2022-12-04T09:10:42;2.90;99.90
831;DHT22;397;50.564;7.272;2022-12-04T09:13:10;2.90;99.90
831;DHT22;397;50.564;7.272;2022-12-04T09:15:38;2.80;99.90
831;DHT22;397;50.564;7.272;2022-12-04T09:18:07;2.90;99.90
831;DHT22;397;50.564;7.272;2022-12-04T09:20:35;2.80;99.90
831;DHT22;397;50.564;7.272;2022-12-04T09:23:04;2.90;99.90
831;DHT22;397;50.564;7.272;2022-12-04T09:25:34;3.10;99.90
831;DHT22;397;50.564;7.272;2022-12-04T09:28:02;3.20;99.90
831;DHT22;397;50.564;7.272;2022-12-04T09:30:30;3.00;99.90
831;DHT22;397;50.564;7.272;2022-12-04T09:32:58;3.20;99.90
831;DHT22;397;50.564;7.272;2022-12-04T09:35:25;3.30;99.90
831;DHT22;397;50.564;7.272;2022-12-04T09:37:53;3.40;99.90
831;DHT22;397;50.564;7.272;2022-12-04T09:40:24;3.40;99.90
831;DHT22;397;50.564;7.272;2022-12-04T09:43:08;3.40;99.90
831;DHT22;397;50.564;7.272;2022-12-04T09:45:41;3.40;99.90
831;DHT22;397;50.564;7.272;2022-12-04T09:48:07;3.40;99.90
831;DHT22;397;50.564;7.272;2022-12-04T09:50:43;3.30;99.90
831;DHT22;397;50.564;7.272;2022-12-04T09:53:24;3.30;99.90
831;DHT22;397;50.564;7.272;2022-12-04T09:55:57;3.40;99.90
831;DHT22;397;50.564;7.272;2022-12-04T10:01:21;3.70;99.90
831;DHT22;397;50.564;7.272;2022-12-04T10:03:49;3.70;99.90
831;DHT22;397;50.564;7.272;2022-12-04T10:06:25;3.50;99.90
831;DHT22;397;50.564;7.272;2022-12-04T10:09:00;3.40;99.90
831;DHT22;397;50.564;7.272;2022-12-04T10:11:35;3.30;99.90
831;DHT22;397;50.564;7.272;2022-12-04T10:16:57;3.00;99.90
831;DHT22;397;50.564;7.272;2022-12-04T10:22:09;2.90;99.90
831;DHT22;397;50.564;7.272;2022-12-04T10:24:43;2.80;99.90
831;DHT22;397;50.564;7.272;2022-12-04T10:27:20;2.90;99.90
831;DHT22;397;50.564;7.272;2022-12-04T10:29:51;2.90;99.90
831;DHT22;397;50.564;7.272;2022-12-04T10:32:27;2.80;99.90
831;DHT22;397;50.564;7.272;2022-12-04T10:34:53;2.80;99.90
831;DHT22;397;50.564;7.272;2022-12-04T10:37:23;2.80;99.90
831;DHT22;397;50.564;7.272;2022-12-04T10:39:56;3.00;99.90
831;DHT22;397;50.564;7.272;2022-12-04T10:42:30;3.00;99.90
831;DHT22;397;50.564;7.272;2022-12-04T10:44:57;3.00;99.90
831;DHT22;397;50.564;7.272;2022-12-04T10:47:24;3.10;99.90
831;DHT22;397;50.564;7.272;2022-12-04T10:49:57;3.30;99.90
831;DHT22;397;50.564;7.272;2022-12-04T10:52:25;3.50;99.90
831;DHT22;397;50.564;7.272;2022-12-04T10:54:55;3.60;99.90
831;DHT22;397;50.564;7.272;2022-12-04T10:57:43;3.40;99.90
831;DHT22;397;50.564;7.272;2022-12-04T11:02:50;3.30;99.90
831;DHT22;397;50.564;7.272;2022-12-04T11:05:25;3.40;99.90
831;DHT22;397;50.564;7.272;2022-12-04T11:07:54;3.40;99.90
831;DHT22;397;50.564;7.272;2022-12-04T11:10:25;3.20;99.90
831;DHT22;397;50.564;7.272;2022-12-04T11:13:00;3.30;99.90
831;DHT22;397;50.564;7.272;2022-12-04T11:15:28;3.20;99.90
831;DHT22;397;50.564;7.272;2022-12-04T11:18:14;3.10;99.90
831;DHT22;397;50.564;7.272;2022-12-04T11:20:56;3.30;99.90
831;DHT22;397;50.564;7.272;2022-12-04T11:23:25;3.60;99.90
831;DHT22;397;50.564;7.272;2022-12-04T11:25:55;3.60;99.90
831;DHT22;397;50.564;7.272;2022-12-04T11:28:30;3.50;99.90
831;DHT22;397;50.564;7.272;2022-12-04T11:30:58;3.60;99.90
831;DHT22;397;50.564;7.272;2022-12-04T11:33:32;3.80;99.90
831;DHT22;397;50.564;7.272;2022-12-04T11:36:01;3.40;99.90
831;DHT22;397;50.564;7.272;2022-12-04T11:38:34;3.40;99.90
831;DHT22;397;50.564;7.272;2022-12-04T11:41:03;3.60;99.90
831;DHT22;397;50.564;7.272;2022-12-04T11:43:33;3.70;99.90
831;DHT22;397;50.564;7.272;2022-12-04T11:46:04;3.60;99.90
831;DHT22;397;50.564;7.272;2022-12-04T11:48:41;3.70;99.90
831;DHT22;397;50.564;7.272;2022-12-04T11:54:28;3.50;99.90
831;DHT22;397;50.564;7.272;2022-12-04T12:08:18;3.80;99.90
831;DHT22;397;50.564;7.272;2022-12-04T12:16:38;3.80;99.90
831;DHT22;397;50.564;7.272;2022-12-04T12:19:26;4.00;99.90
831;DHT22;397;50.564;7.272;2022-12-04T12:22:12;4.00;99.90
831;DHT22;397;50.564;7.272;2022-12-04T12:27:34;3.90;99.90
831;DHT22;397;50.564;7.272;2022-12-04T12:30:23;3.80;99.90
831;DHT22;397;50.564;7.272;2022-12-04T12:38:05;3.70;99.90
831;DHT22;397;50.564;7.272;2022-12-04T12:40:47;3.60;99.90
831;DHT22;397;50.564;7.272;2022-12-04T12:43:32;3.80;99.90
831;DHT22;397;50.564;7.272;2022-12-04T12:48:59;4.00;99.90
831;DHT22;397;50.564;7.272;2022-12-04T12:51:46;4.00;99.90
831;DHT22;397;50.564;7.272;2022-12-04T12:54:25;4.10;99.90
831;DHT22;397;50.564;7.272;2022-12-04T12:56:50;4.10;99.90
831;DHT22;397;50.564;7.272;2022-12-04T12:59:21;4.10;99.90
831;DHT22;397;50.564;7.272;2022-12-04T13:01:53;4.20;99.90
831;DHT22;397;50.564;7.272;2022-12-04T13:04:33;4.10;99.90
831;DHT22;397;50.564;7.272;2022-12-04T13:07:03;4.00;99.90
831;DHT22;397;50.564;7.272;2022-12-04T13:09:34;4.00;99.90
831;DHT22;397;50.564;7.272;2022-12-04T13:12:07;4.00;99.90
831;DHT22;397;50.564;7.272;2022-12-04T13:14:33;4.00;99.90
831;DHT22;397;50.564;7.272;2022-12-04T13:17:19;4.00;99.90
831;DHT22;397;50.564;7.272;2022-12-04T13:19:49;3.90;99.90
831;DHT22;397;50.564;7.272;2022-12-04T13:22:39;4.10;99.90
831;DHT22;397;50.564;7.272;2022-12-04T13:25:23;3.90;99.90
831;DHT22;397;50.564;7.272;2022-12-04T13:30:47;3.90;99.90
831;DHT22;397;50.564;7.272;2022-12-04T13:33:27;3.90;99.90
831;DHT22;397;50.564;7.272;2022-12-04T13:36:11;3.90;99.90
831;DHT22;397;50.564;7.272;2022-12-04T13:38:42;4.00;99.90
831;DHT22;397;50.564;7.272;2022-12-04T13:41:11;3.70;99.90
831;DHT22;397;50.564;7.272;2022-12-04T13:43:44;3.90;99.90
831;DHT22;397;50.564;7.272;2022-12-04T13:48:52;3.90;99.90
831;DHT22;397;50.564;7.272;2022-12-04T13:51:25;4.10;99.90
831;DHT22;397;50.564;7.272;2022-12-04T13:56:44;3.90;99.90
831;DHT22;397;50.564;7.272;2022-12-04T13:59:21;3.70;99.90
831;DHT22;397;50.564;7.272;2022-12-04T14:01:50;3.70;99.90
831;DHT22;397;50.564;7.272;2022-12-04T14:07:02;3.70;99.90
831;DHT22;397;50.564;7.272;2022-12-04T14:09:41;3.90;99.90
831;DHT22;397;50.564;7.272;2022-12-04T14:12:11;3.90;99.90
831;DHT22;397;50.564;7.272;2022-12-04T14:14:50;4.00;99.90
831;DHT22;397;50.564;7.272;2022-12-04T14:17:30;3.90;99.90
831;DHT22;397;50.564;7.272;2022-12-04T14:20:01;3.80;99.90
831;DHT22;397;50.564;7.272;2022-12-04T14:22:43;3.90;99.90
831;DHT22;397;50.564;7.272;2022-12-04T14:27:46;3.90;99.90
831;DHT22;397;50.564;7.272;2022-12-04T14:30:36;3.90;99.90
831;DHT22;397;50.564;7.272;2022-12-04T14:33:10;3.90;99.90
831;DHT22;397;50.564;7.272;2022-12-04T14:35:55;3.90;99.90
831;DHT22;397;50.564;7.272;2022-12-04T14:38:22;3.90;99.90
831;DHT22;397;50.564;7.272;2022-12-04T14:40:52;3.90;99.90
831;DHT22;397;50.564;7.272;2022-12-04T14:43:30;3.60;99.90
831;DHT22;397;50.564;7.272;2022-12-04T14:48:51;3.50;99.90
831;DHT22;397;50.564;7.272;2022-12-04T14:51:27;3.40;99.90
831;DHT22;397;50.564;7.272;2022-12-04T14:54:03;3.50;99.90
831;DHT22;397;50.564;7.272;2022-12-04T14:56:59;3.40;99.90
831;DHT22;397;50.564;7.272;2022-12-04T14:59:33;3.30;99.90
831;DHT22;397;50.564;7.272;2022-12-04T15:01:57;3.30;99.90
831;DHT22;397;50.564;7.272;2022-12-04T15:04:33;3.40;99.90
831;DHT22;397;50.564;7.272;2022-12-04T15:06:57;3.60;99.90
831;DHT22;397;50.564;7.272;2022-12-04T15:09:25;3.70;99.90
831;DHT22;397;50.564;7.272;2022-12-04T15:12:17;3.80;99.90
831;DHT22;397;50.564;7.272;2022-12-04T15:15:18;3.60;99.90
831;DHT22;397;50.564;7.272;2022-12-04T15:20:36;3.90;99.90
831;DHT22;397;50.564;7.272;2022-12-04T15:23:03;3.90;99.90
831;DHT22;397;50.564;7.272;2022-12-04T15:25:52;3.90;99.90
831;DHT22;397;50.564;7.272;2022-12-04T15:28:19;4.00;99.90
831;DHT22;397;50.564;7.272;2022-12-04T15:30:47;4.00;99.90
831;DHT22;397;50.564;7.272;2022-12-04T15:33:24;3.90;99.90
831;DHT22;397;50.564;7.272;2022-12-04T15:36:02;3.90;99.90
831;DHT22;397;50.564;7.272;2022-12-04T15:38:26;3.90;99.90
831;DHT22;397;50.564;7.272;2022-12-04T15:40:56;3.90;99.90
831;DHT22;397;50.564;7.272;2022-12-04T15:43:38;3.80;99.90
831;DHT22;397;50.564;7.272;2022-12-04T15:46:14;3.70;99.90
831;DHT22;397;50.564;7.272;2022-12-04T15:48:42;3.70;99.90
831;DHT22;397;50.564;7.272;2022-12-04T15:51:11;3.70;99.90
831;DHT22;397;50.564;7.272;2022-12-04T15:53:43;3.80;99.90
831;DHT22;397;50.564;7.272;2022-12-04T15:56:19;3.70;99.90
831;DHT22;397;50.564;7.272;2022-12-04T15:58:57;3.70;99.90
831;DHT22;397;50.564;7.272;2022-12-04T16:01:21;3.60;99.90
831;DHT22;397;50.564;7.272;2022-12-04T16:03:51;3.80;99.90
831;DHT22;397;50.564;7.272;2022-12-04T16:06:27;3.80;99.90
831;DHT22;397;50.564;7.272;2022-12-04T16:08:57;3.60;99.90
831;DHT22;397;50.564;7.272;2022-12-04T16:11:31;3.80;99.90
831;DHT22;397;50.564;7.272;2022-12-04T16:14:16;3.70;99.90
831;DHT22;397;50.564;7.272;2022-12-04T16:16:46;3.70;99.90
831;DHT22;397;50.564;7.272;2022-12-04T16:19:33;3.60;99.90
831;DHT22;397;50.564;7.272;2022-12-04T16:22:03;3.70;99.90
831;DHT22;397;50.564;7.272;2022-12-04T16:24:30;3.70;99.90
831;DHT22;397;50.564;7.272;2022-12-04T16:26:59;3.50;99.90
831;DHT22;397;50.564;7.272;2022-12-04T16:29:27;3.60;99.90
831;DHT22;397;50.564;7.272;2022-12-04T16:31:56;3.60;99.90
831;DHT22;397;50.564;7.272;2022-12-04T16:34:24;3.50;99.90
831;DHT22;397;50.564;7.272;2022-12-04T16:36:51;3.30;99.90
831;DHT22;397;50.564;7.272;2022-12-04T16:39:19;3.30;99.90
831;DHT22;397;50.564;7.272;2022-12-04T16:41:46;3.30;99.90
831;DHT22;397;50.564;7.272;2022-12-04T16:44:15;3.40;99.90
831;DHT22;397;50.564;7.272;2022-12-04T16:46:43;3.20;99.90
831;DHT22;397;50.564;7.272;2022-12-04T16:49:11;3.30;99.90
831;DHT22;397;50.564;7.272;2022-12-04T16:51:45;3.40;99.90
831;DHT22;397;50.564;7.272;2022-12-04T16:54:15;3.40;99.90
831;DHT22;397;50.564;7.272;2022-12-04T16:56:42;3.40;99.90
831;DHT22;397;50.564;7.272;2022-12-04T16:59:10;3.50;99.90
831;DHT22;397;50.564;7.272;2022-12-04T17:01:47;3.40;99.90
831;DHT22;397;50.564;7.272;2022-12-04T17:04:11;3.40;99.90
831;DHT22;397;50.564;7.272;2022-12-04T17:06:38;3.40;99.90
831;DHT22;397;50.564;7.272;2022-12-04T17:09:07;3.30;99.90
831;DHT22;397;50.564;7.272;2022-12-04T17:11:35;3.30;99.90
831;DHT22;397;50.564;7.272;2022-12-04T17:14:02;3.30;99.90
831;DHT22;397;50.564;7.272;2022-12-04T17:16:36;3.40;99.90
831;DHT22;397;50.564;7.272;2022-12-04T17:19:06;3.40;99.90
831;DHT22;397;50.564;7.272;2022-12-04T17:21:34;3.30;99.90
831;DHT22;397;50.564;7.272;2022-12-04T17:24:01;3.30;99.90
831;DHT22;397;50.564;7.272;2022-12-04T17:26:29;3.40;99.90
831;DHT22;397;50.564;7.272;2022-12-04T17:28:57;3.50;99.90
831;DHT22;397;50.564;7.272;2022-12-04T17:31:25;3.50;99.90
831;DHT22;397;50.564;7.272;2022-12-04T17:33:54;3.50;99.90
831;DHT22;397;50.564;7.272;2022-12-04T17:36:24;3.60;99.90
831;DHT22;397;50.564;7.272;2022-12-04T17:38:55;3.50;99.90
831;DHT22;397;50.564;7.272;2022-12-04T17:41:22;3.30;99.90
831;DHT22;397;50.564;7.272;2022-12-04T17:43:50;3.30;99.90
831;DHT22;397;50.564;7.272;2022-12-04T17:46:19;3.30;99.90
831;DHT22;397;50.564;7.272;2022-12-04T17:48:49;3.30;99.90
831;DHT22;397;50.564;7.272;2022-12-04T17:51:19;3.40;99.90
831;DHT22;397;50.564;7.272;2022-12-04T17:53:48;3.40;99.90
831;DHT22;397;50.564;7.272;2022-12-04T17:56:18;3.30;99.90
831;DHT22;397;50.564;7.272;2022-12-04T17:58:46;3.30;99.90
831;DHT22;397;50.564;7.272;2022-12-04T18:01:24;3.40;99.90
831;DHT22;397;50.564;7.272;2022-12-04T18:03:52;3.50;99.90
831;DHT22;397;50.564;7.272;2022-12-04T18:06:31;3.40;99.90
831;DHT22;397;50.564;7.272;2022-12-04T18:08:54;3.60;99.90
831;DHT22;397;50.564;7.272;2022-12-04T18:11:24;3.60;99.90
831;DHT22;397;50.564;7.272;2022-12-04T18:14:00;3.40;99.90
831;DHT22;397;50.564;7.272;2022-12-04T18:16:30;3.60;99.90
831;DHT22;397;50.564;7.272;2022-12-04T18:18:59;3.60;99.90
831;DHT22;397;50.564;7.272;2022-12-04T18:21:27;3.70;99.90
831;DHT22;397;50.564;7.272;2022-12-04T18:23:57;3.70;99.90
831;DHT22;397;50.564;7.272;2022-12-04T18:26:26;3.90;99.90
831;DHT22;397;50.564;7.272;2022-12-04T18:28:54;3.90;99.90
831;DHT22;397;50.564;7.272;2022-12-04T18:31:22;4.00;99.90
831;DHT22;397;50.564;7.272;2022-12-04T18:33:50;4.00;99.90
831;DHT22;397;50.564;7.272;2022-12-04T18:36:20;3.80;99.90
831;DHT22;397;50.564;7.272;2022-12-04T18:38:53;3.80;99.90
831;DHT22;397;50.564;7.272;2022-12-04T18:41:21;3.90;99.90
831;DHT22;397;50.564;7.272;2022-12-04T18:43:49;4.00;99.90